sensor_id;sensor_type;location;lat;lon;timestamp;P1;durP1;ratioP1;P2;durP2;ratioP2
8413;SDS011;4244;48.684;9.028;2023-07-29T00:00:53;2.27;;;2.07;;
8413;SDS011;4244;48.684;9.028;2023-07-29T00:03:18;2.43;;;2.00;;
8413;SDS011;4244;48.684;9.028;2023-07-29T00:05:44;6.17;;;2.40;;
8413;SDS011;4244;48.684;9.028;2023-07-29T00:08:10;2.80;;;2.20;;
8413;SDS011;4244;48.684;9.028;2023-07-29T00:10:36;2.33;;;2.10;;
8413;SDS011;4244;48.684;9.028;2023-07-29T00:13:03;2.80;;;2.20;;
8413;SDS011;4244;48.684;9.028;2023-07-29T00:15:29;8.50;;;2.93;;
8413;SDS011;4244;48.684;9.028;2023-07-29T00:17:55;2.50;;;1.97;;
8413;SDS011;4244;48.684;9.028;2023-07-29T00:20:20;2.67;;;2.23;;
8413;SDS011;4244;48.684;9.028;2023-07-29T00:22:47;3.83;;;2.40;;
8413;SDS011;4244;48.684;9.028;2023-07-29T00:25:15;2.80;;;2.40;;
8413;SDS011;4244;48.684;9.028;2023-07-29T00:27:41;2.13;;;1.97;;
8413;SDS011;4244;48.684;9.028;2023-07-29T00:30:07;3.00;;;2.40;;
8413;SDS011;4244;48.684;9.028;2023-07-29T00:32:35;2.60;;;2.00;;
8413;SDS011;4244;48.684;9.028;2023-07-29T00:35:01;2.23;;;2.00;;
8413;SDS011;4244;48.684;9.028;2023-07-29T00:37:27;3.83;;;2.10;;
8413;SDS011;4244;48.684;9.028;2023-07-29T00:39:53;2.73;;;1.97;;
8413;SDS011;4244;48.684;9.028;2023-07-29T00:42:19;4.00;;;2.07;;
8413;SDS011;4244;48.684;9.028;2023-07-29T00:44:45;2.60;;;2.20;;
8413;SDS011;4244;48.684;9.028;2023-07-29T00:47:10;3.60;;;2.20;;
8413;SDS011;4244;48.684;9.028;2023-07-29T00:49:37;2.20;;;2.00;;
8413;SDS011;4244;48.684;9.028;2023-07-29T00:52:02;2.47;;;2.27;;
8413;SDS011;4244;48.684;9.028;2023-07-29T00:54:28;3.03;;;2.33;;
8413;SDS011;4244;48.684;9.028;2023-07-29T00:56:54;2.73;;;2.47;;
8413;SDS011;4244;48.684;9.028;2023-07-29T00:59:19;2.90;;;1.83;;
8413;SDS011;4244;48.684;9.028;2023-07-29T01:01:45;3.53;;;2.20;;
8413;SDS011;4244;48.684;9.028;2023-07-29T01:04:12;2.30;;;1.93;;
8413;SDS011;4244;48.684;9.028;2023-07-29T01:06:51;2.97;;;2.30;;
8413;SDS011;4244;48.684;9.028;2023-07-29T01:09:48;2.60;;;2.40;;
8413;SDS011;4244;48.684;9.028;2023-07-29T01:15:28;4.20;;;2.80;;
8413;SDS011;4244;48.684;9.028;2023-07-29T01:18:05;2.80;;;2.30;;
8413;SDS011;4244;48.684;9.028;2023-07-29T01:20:35;4.17;;;2.57;;
8413;SDS011;4244;48.684;9.028;2023-07-29T01:23:04;2.67;;;2.13;;
8413;SDS011;4244;48.684;9.028;2023-07-29T01:25:29;3.30;;;2.03;;
8413;SDS011;4244;48.684;9.028;2023-07-29T01:27:55;2.40;;;2.20;;
8413;SDS011;4244;48.684;9.028;2023-07-29T01:30:21;3.13;;;1.90;;
8413;SDS011;4244;48.684;9.028;2023-07-29T01:32:58;2.37;;;2.00;;
8413;SDS011;4244;48.684;9.028;2023-07-29T01:35:48;3.00;;;1.80;;
8413;SDS011;4244;48.684;9.028;2023-07-29T01:38:31;2.37;;;2.17;;
8413;SDS011;4244;48.684;9.028;2023-07-29T01:41:02;3.07;;;2.77;;
8413;SDS011;4244;48.684;9.028;2023-07-29T01:43:29;3.27;;;2.97;;
8413;SDS011;4244;48.684;9.028;2023-07-29T01:45:55;3.33;;;2.20;;
8413;SDS011;4244;48.684;9.028;2023-07-29T01:48:21;3.57;;;2.37;;
8413;SDS011;4244;48.684;9.028;2023-07-29T01:50:47;2.20;;;2.00;;
8413;SDS011;4244;48.684;9.028;2023-07-29T01:53:12;3.40;;;2.40;;
8413;SDS011;4244;48.684;9.028;2023-07-29T01:55:38;2.90;;;2.57;;
8413;SDS011;4244;48.684;9.028;2023-07-29T01:58:04;2.17;;;1.97;;
8413;SDS011;4244;48.684;9.028;2023-07-29T02:00:30;3.30;;;2.23;;
8413;SDS011;4244;48.684;9.028;2023-07-29T02:02:55;3.13;;;2.13;;
8413;SDS011;4244;48.684;9.028;2023-07-29T02:05:21;3.50;;;2.23;;
8413;SDS011;4244;48.684;9.028;2023-07-29T02:07:47;5.10;;;2.30;;
8413;SDS011;4244;48.684;9.028;2023-07-29T02:10:12;2.73;;;2.10;;
8413;SDS011;4244;48.684;9.028;2023-07-29T02:12:38;3.30;;;2.50;;
8413;SDS011;4244;48.684;9.028;2023-07-29T02:15:04;3.90;;;2.60;;
8413;SDS011;4244;48.684;9.028;2023-07-29T02:17:30;2.30;;;2.10;;
8413;SDS011;4244;48.684;9.028;2023-07-29T02:19:56;2.40;;;1.83;;
8413;SDS011;4244;48.684;9.028;2023-07-29T02:22:21;3.37;;;2.43;;
8413;SDS011;4244;48.684;9.028;2023-07-29T02:24:47;2.40;;;2.20;;
8413;SDS011;4244;48.684;9.028;2023-07-29T02:27:13;3.53;;;2.47;;
8413;SDS011;4244;48.684;9.028;2023-07-29T02:29:38;3.20;;;2.20;;
8413;SDS011;4244;48.684;9.028;2023-07-29T02:32:04;3.87;;;2.83;;
8413;SDS011;4244;48.684;9.028;2023-07-29T02:38:10;3.53;;;2.20;;
8413;SDS011;4244;48.684;9.028;2023-07-29T02:40:37;3.83;;;2.53;;
8413;SDS011;4244;48.684;9.028;2023-07-29T02:43:03;3.50;;;2.10;;
8413;SDS011;4244;48.684;9.028;2023-07-29T02:45:28;4.90;;;2.47;;
8413;SDS011;4244;48.684;9.028;2023-07-29T02:47:54;4.30;;;3.53;;
8413;SDS011;4244;48.684;9.028;2023-07-29T02:50:19;3.30;;;2.30;;
8413;SDS011;4244;48.684;9.028;2023-07-29T02:52:45;2.30;;;2.10;;
8413;SDS011;4244;48.684;9.028;2023-07-29T02:55:11;4.47;;;2.80;;
8413;SDS011;4244;48.684;9.028;2023-07-29T02:57:36;5.23;;;3.30;;
8413;SDS011;4244;48.684;9.028;2023-07-29T03:00:02;3.23;;;2.97;;
8413;SDS011;4244;48.684;9.028;2023-07-29T03:02:28;2.63;;;2.43;;
8413;SDS011;4244;48.684;9.028;2023-07-29T03:04:53;2.60;;;2.40;;
8413;SDS011;4244;48.684;9.028;2023-07-29T03:07:19;3.57;;;3.00;;
8413;SDS011;4244;48.684;9.028;2023-07-29T03:09:45;3.77;;;3.00;;
8413;SDS011;4244;48.684;9.028;2023-07-29T03:12:11;2.43;;;2.23;;
8413;SDS011;4244;48.684;9.028;2023-07-29T03:14:36;4.60;;;3.63;;
8413;SDS011;4244;48.684;9.028;2023-07-29T03:17:02;3.10;;;2.80;;
8413;SDS011;4244;48.684;9.028;2023-07-29T03:19:29;3.40;;;2.60;;
8413;SDS011;4244;48.684;9.028;2023-07-29T03:21:55;4.00;;;2.70;;
8413;SDS011;4244;48.684;9.028;2023-07-29T03:24:20;2.73;;;2.53;;
8413;SDS011;4244;48.684;9.028;2023-07-29T03:26:46;3.03;;;2.60;;
8413;SDS011;4244;48.684;9.028;2023-07-29T03:29:11;2.50;;;2.30;;
8413;SDS011;4244;48.684;9.028;2023-07-29T03:31:37;3.50;;;3.10;;
8413;SDS011;4244;48.684;9.028;2023-07-29T03:34:03;3.20;;;2.90;;
8413;SDS011;4244;48.684;9.028;2023-07-29T03:36:29;3.23;;;2.90;;
8413;SDS011;4244;48.684;9.028;2023-07-29T03:38:54;2.90;;;2.70;;
8413;SDS011;4244;48.684;9.028;2023-07-29T03:41:20;3.73;;;3.37;;
8413;SDS011;4244;48.684;9.028;2023-07-29T03:43:45;3.70;;;3.03;;
8413;SDS011;4244;48.684;9.028;2023-07-29T03:46:11;3.87;;;2.70;;
8413;SDS011;4244;48.684;9.028;2023-07-29T03:48:36;3.47;;;2.60;;
8413;SDS011;4244;48.684;9.028;2023-07-29T03:51:02;2.73;;;2.53;;
8413;SDS011;4244;48.684;9.028;2023-07-29T03:53:28;4.00;;;3.07;;
8413;SDS011;4244;48.684;9.028;2023-07-29T03:55:53;3.23;;;2.93;;
8413;SDS011;4244;48.684;9.028;2023-07-29T03:58:19;3.63;;;3.20;;
8413;SDS011;4244;48.684;9.028;2023-07-29T04:00:44;3.17;;;2.87;;
8413;SDS011;4244;48.684;9.028;2023-07-29T04:03:10;4.57;;;3.00;;
8413;SDS011;4244;48.684;9.028;2023-07-29T04:05:36;3.77;;;3.37;;
8413;SDS011;4244;48.684;9.028;2023-07-29T04:08:02;6.40;;;2.60;;
8413;SDS011;4244;48.684;9.028;2023-07-29T04:10:27;3.20;;;2.90;;
8413;SDS011;4244;48.684;9.028;2023-07-29T04:12:54;3.70;;;3.27;;
8413;SDS011;4244;48.684;9.028;2023-07-29T04:15:20;3.43;;;2.67;;
8413;SDS011;4244;48.684;9.028;2023-07-29T04:17:46;3.83;;;2.83;;
8413;SDS011;4244;48.684;9.028;2023-07-29T04:20:11;3.43;;;2.97;;
8413;SDS011;4244;48.684;9.028;2023-07-29T04:22:37;3.80;;;3.10;;
8413;SDS011;4244;48.684;9.028;2023-07-29T04:25:02;2.90;;;2.60;;
8413;SDS011;4244;48.684;9.028;2023-07-29T04:27:29;3.10;;;2.80;;
8413;SDS011;4244;48.684;9.028;2023-07-29T04:29:55;2.70;;;2.47;;
8413;SDS011;4244;48.684;9.028;2023-07-29T04:32:20;3.87;;;2.70;;
8413;SDS011;4244;48.684;9.028;2023-07-29T04:34:46;3.37;;;3.00;;
8413;SDS011;4244;48.684;9.028;2023-07-29T04:37:12;3.67;;;3.10;;
8413;SDS011;4244;48.684;9.028;2023-07-29T04:39:37;7.00;;;3.57;;
8413;SDS011;4244;48.684;9.028;2023-07-29T04:42:03;3.93;;;3.30;;
8413;SDS011;4244;48.684;9.028;2023-07-29T04:44:29;3.37;;;3.07;;
8413;SDS011;4244;48.684;9.028;2023-07-29T04:46:54;4.50;;;3.60;;
8413;SDS011;4244;48.684;9.028;2023-07-29T04:49:20;6.53;;;3.63;;
8413;SDS011;4244;48.684;9.028;2023-07-29T04:51:46;3.93;;;3.13;;
8413;SDS011;4244;48.684;9.028;2023-07-29T04:54:13;3.30;;;3.00;;
8413;SDS011;4244;48.684;9.028;2023-07-29T04:56:39;3.73;;;3.33;;
8413;SDS011;4244;48.684;9.028;2023-07-29T04:59:06;7.27;;;3.60;;
8413;SDS011;4244;48.684;9.028;2023-07-29T05:01:33;3.60;;;3.30;;
8413;SDS011;4244;48.684;9.028;2023-07-29T05:03:59;4.60;;;4.03;;
8413;SDS011;4244;48.684;9.028;2023-07-29T05:06:24;4.17;;;3.77;;
8413;SDS011;4244;48.684;9.028;2023-07-29T05:08:50;3.90;;;3.30;;
8413;SDS011;4244;48.684;9.028;2023-07-29T05:11:15;3.80;;;3.50;;
8413;SDS011;4244;48.684;9.028;2023-07-29T05:13:41;4.30;;;3.57;;
8413;SDS011;4244;48.684;9.028;2023-07-29T05:16:08;5.20;;;4.10;;
8413;SDS011;4244;48.684;9.028;2023-07-29T05:18:34;3.93;;;3.03;;
8413;SDS011;4244;48.684;9.028;2023-07-29T05:21:00;4.60;;;3.50;;
8413;SDS011;4244;48.684;9.028;2023-07-29T05:23:25;4.60;;;3.73;;
8413;SDS011;4244;48.684;9.028;2023-07-29T05:25:51;3.70;;;3.37;;
8413;SDS011;4244;48.684;9.028;2023-07-29T05:28:16;4.27;;;3.87;;
8413;SDS011;4244;48.684;9.028;2023-07-29T05:30:44;3.60;;;3.10;;
8413;SDS011;4244;48.684;9.028;2023-07-29T05:33:09;4.43;;;3.70;;
8413;SDS011;4244;48.684;9.028;2023-07-29T05:35:35;3.30;;;3.00;;
8413;SDS011;4244;48.684;9.028;2023-07-29T05:38:01;4.10;;;3.33;;
8413;SDS011;4244;48.684;9.028;2023-07-29T05:40:28;3.20;;;2.90;;
8413;SDS011;4244;48.684;9.028;2023-07-29T05:42:53;3.70;;;3.20;;
8413;SDS011;4244;48.684;9.028;2023-07-29T05:45:19;3.83;;;2.93;;
8413;SDS011;4244;48.684;9.028;2023-07-29T05:47:45;4.83;;;3.50;;
8413;SDS011;4244;48.684;9.028;2023-07-29T05:50:10;3.87;;;2.70;;
8413;SDS011;4244;48.684;9.028;2023-07-29T05:52:36;4.40;;;3.40;;
8413;SDS011;4244;48.684;9.028;2023-07-29T05:55:02;3.77;;;3.30;;
8413;SDS011;4244;48.684;9.028;2023-07-29T05:57:28;4.27;;;3.20;;
8413;SDS011;4244;48.684;9.028;2023-07-29T05:59:57;3.80;;;2.30;;
8413;SDS011;4244;48.684;9.028;2023-07-29T06:02:22;5.53;;;3.53;;
8413;SDS011;4244;48.684;9.028;2023-07-29T06:04:48;4.00;;;3.30;;
8413;SDS011;4244;48.684;9.028;2023-07-29T06:07:17;4.30;;;3.23;;
8413;SDS011;4244;48.684;9.028;2023-07-29T06:15:43;3.10;;;2.80;;
8413;SDS011;4244;48.684;9.028;2023-07-29T06:24:14;2.70;;;2.50;;
8413;SDS011;4244;48.684;9.028;2023-07-29T06:26:47;3.37;;;2.13;;
8413;SDS011;4244;48.684;9.028;2023-07-29T06:41:29;5.27;;;2.87;;
8413;SDS011;4244;48.684;9.028;2023-07-29T06:44:02;3.80;;;2.17;;
8413;SDS011;4244;48.684;9.028;2023-07-29T06:46:29;5.40;;;2.63;;
8413;SDS011;4244;48.684;9.028;2023-07-29T06:49:10;4.57;;;2.70;;
8413;SDS011;4244;48.684;9.028;2023-07-29T06:55:12;5.50;;;2.90;;
8413;SDS011;4244;48.684;9.028;2023-07-29T07:03:28;6.37;;;3.13;;
8413;SDS011;4244;48.684;9.028;2023-07-29T07:08:52;3.37;;;1.77;;
8413;SDS011;4244;48.684;9.028;2023-07-29T07:11:22;4.80;;;2.50;;
8413;SDS011;4244;48.684;9.028;2023-07-29T07:14:02;5.43;;;1.97;;
8413;SDS011;4244;48.684;9.028;2023-07-29T07:16:45;3.47;;;2.23;;
8413;SDS011;4244;48.684;9.028;2023-07-29T07:19:11;4.57;;;2.80;;
8413;SDS011;4244;48.684;9.028;2023-07-29T07:21:36;3.60;;;2.53;;
8413;SDS011;4244;48.684;9.028;2023-07-29T07:24:03;3.40;;;2.80;;
8413;SDS011;4244;48.684;9.028;2023-07-29T07:26:30;4.83;;;2.43;;
8413;SDS011;4244;48.684;9.028;2023-07-29T07:28:57;2.67;;;2.37;;
8413;SDS011;4244;48.684;9.028;2023-07-29T07:31:33;2.70;;;2.17;;
8413;SDS011;4244;48.684;9.028;2023-07-29T07:34:20;3.70;;;2.03;;
8413;SDS011;4244;48.684;9.028;2023-07-29T07:39:59;2.67;;;2.10;;
8413;SDS011;4244;48.684;9.028;2023-07-29T07:42:25;2.00;;;1.70;;
8413;SDS011;4244;48.684;9.028;2023-07-29T07:45:27;2.50;;;2.20;;
8413;SDS011;4244;48.684;9.028;2023-07-29T07:48:05;3.03;;;2.00;;
8413;SDS011;4244;48.684;9.028;2023-07-29T07:50:46;3.70;;;1.67;;
8413;SDS011;4244;48.684;9.028;2023-07-29T07:53:16;2.47;;;1.77;;
8413;SDS011;4244;48.684;9.028;2023-07-29T07:56:18;3.10;;;1.87;;
8413;SDS011;4244;48.684;9.028;2023-07-29T07:58:55;4.40;;;1.60;;
8413;SDS011;4244;48.684;9.028;2023-07-29T08:01:36;3.10;;;1.67;;
8413;SDS011;4244;48.684;9.028;2023-07-29T08:18:59;2.67;;;1.30;;
8413;SDS011;4244;48.684;9.028;2023-07-29T08:59:19;5.13;;;1.80;;
8413;SDS011;4244;48.684;9.028;2023-07-29T09:01:46;3.47;;;2.00;;
8413;SDS011;4244;48.684;9.028;2023-07-29T09:04:13;3.00;;;1.90;;
8413;SDS011;4244;48.684;9.028;2023-07-29T09:06:40;2.50;;;1.80;;
8413;SDS011;4244;48.684;9.028;2023-07-29T09:09:08;1.83;;;1.73;;
8413;SDS011;4244;48.684;9.028;2023-07-29T09:11:35;3.03;;;2.13;;
8413;SDS011;4244;48.684;9.028;2023-07-29T09:14:03;2.30;;;1.80;;
8413;SDS011;4244;48.684;9.028;2023-07-29T09:16:29;2.40;;;1.90;;
8413;SDS011;4244;48.684;9.028;2023-07-29T09:18:55;2.83;;;1.93;;
8413;SDS011;4244;48.684;9.028;2023-07-29T09:21:26;1.90;;;1.70;;
8413;SDS011;4244;48.684;9.028;2023-07-29T09:23:53;2.10;;;1.70;;
8413;SDS011;4244;48.684;9.028;2023-07-29T09:26:23;3.13;;;2.00;;
8413;SDS011;4244;48.684;9.028;2023-07-29T09:28:53;2.97;;;2.00;;
8413;SDS011;4244;48.684;9.028;2023-07-29T09:31:20;1.90;;;1.70;;
8413;SDS011;4244;48.684;9.028;2023-07-29T09:33:47;2.23;;;1.80;;
8413;SDS011;4244;48.684;9.028;2023-07-29T09:36:13;2.73;;;2.17;;
8413;SDS011;4244;48.684;9.028;2023-07-29T09:38:39;2.73;;;1.60;;
8413;SDS011;4244;48.684;9.028;2023-07-29T09:41:04;2.00;;;1.73;;
8413;SDS011;4244;48.684;9.028;2023-07-29T09:43:34;2.63;;;1.53;;
8413;SDS011;4244;48.684;9.028;2023-07-29T09:46:00;3.73;;;2.10;;
8413;SDS011;4244;48.684;9.028;2023-07-29T09:48:27;3.40;;;1.93;;
8413;SDS011;4244;48.684;9.028;2023-07-29T09:50:54;8.70;;;2.00;;
8413;SDS011;4244;48.684;9.028;2023-07-29T09:53:20;2.10;;;1.90;;
8413;SDS011;4244;48.684;9.028;2023-07-29T09:55:47;3.30;;;2.30;;
8413;SDS011;4244;48.684;9.028;2023-07-29T09:58:13;3.53;;;2.60;;
8413;SDS011;4244;48.684;9.028;2023-07-29T10:00:39;2.53;;;2.10;;
8413;SDS011;4244;48.684;9.028;2023-07-29T10:03:06;2.80;;;2.60;;
8413;SDS011;4244;48.684;9.028;2023-07-29T10:05:32;2.70;;;2.50;;
8413;SDS011;4244;48.684;9.028;2023-07-29T10:08:00;2.40;;;2.20;;
8413;SDS011;4244;48.684;9.028;2023-07-29T10:10:27;3.47;;;2.63;;
8413;SDS011;4244;48.684;9.028;2023-07-29T10:12:54;2.67;;;2.30;;
8413;SDS011;4244;48.684;9.028;2023-07-29T10:15:19;3.87;;;2.40;;
8413;SDS011;4244;48.684;9.028;2023-07-29T10:17:46;2.43;;;2.23;;
8413;SDS011;4244;48.684;9.028;2023-07-29T10:20:12;2.80;;;2.13;;
8413;SDS011;4244;48.684;9.028;2023-07-29T10:22:38;2.63;;;2.43;;
8413;SDS011;4244;48.684;9.028;2023-07-29T10:25:10;3.43;;;2.27;;
8413;SDS011;4244;48.684;9.028;2023-07-29T10:27:42;2.53;;;2.10;;
8413;SDS011;4244;48.684;9.028;2023-07-29T10:30:15;2.37;;;2.17;;
8413;SDS011;4244;48.684;9.028;2023-07-29T10:32:41;2.40;;;2.20;;
8413;SDS011;4244;48.684;9.028;2023-07-29T10:35:09;2.90;;;2.70;;
8413;SDS011;4244;48.684;9.028;2023-07-29T10:37:36;3.10;;;2.80;;
8413;SDS011;4244;48.684;9.028;2023-07-29T10:40:02;3.00;;;2.27;;
8413;SDS011;4244;48.684;9.028;2023-07-29T10:42:32;2.73;;;2.53;;
8413;SDS011;4244;48.684;9.028;2023-07-29T10:44:57;3.50;;;2.47;;
8413;SDS011;4244;48.684;9.028;2023-07-29T10:47:29;3.07;;;2.77;;
8413;SDS011;4244;48.684;9.028;2023-07-29T10:49:56;2.70;;;2.50;;
8413;SDS011;4244;48.684;9.028;2023-07-29T10:55:01;3.70;;;2.70;;
8413;SDS011;4244;48.684;9.028;2023-07-29T10:57:32;2.30;;;2.07;;
8413;SDS011;4244;48.684;9.028;2023-07-29T11:00:02;2.67;;;2.47;;
8413;SDS011;4244;48.684;9.028;2023-07-29T11:02:30;3.03;;;2.73;;
8413;SDS011;4244;48.684;9.028;2023-07-29T11:04:57;2.63;;;2.43;;
8413;SDS011;4244;48.684;9.028;2023-07-29T11:07:24;2.53;;;2.00;;
8413;SDS011;4244;48.684;9.028;2023-07-29T11:10:09;2.60;;;2.40;;
8413;SDS011;4244;48.684;9.028;2023-07-29T11:12:40;3.60;;;2.70;;
8413;SDS011;4244;48.684;9.028;2023-07-29T11:15:25;3.97;;;2.50;;
8413;SDS011;4244;48.684;9.028;2023-07-29T11:18:00;2.90;;;2.43;;
8413;SDS011;4244;48.684;9.028;2023-07-29T11:20:30;2.97;;;2.53;;
8413;SDS011;4244;48.684;9.028;2023-07-29T11:22:58;2.97;;;2.67;;
8413;SDS011;4244;48.684;9.028;2023-07-29T11:25:28;3.80;;;2.60;;
8413;SDS011;4244;48.684;9.028;2023-07-29T11:27:55;4.17;;;2.40;;
8413;SDS011;4244;48.684;9.028;2023-07-29T11:30:22;2.77;;;2.37;;
8413;SDS011;4244;48.684;9.028;2023-07-29T11:32:48;6.13;;;3.03;;
8413;SDS011;4244;48.684;9.028;2023-07-29T11:35:15;2.33;;;2.13;;
8413;SDS011;4244;48.684;9.028;2023-07-29T11:37:43;3.20;;;2.90;;
8413;SDS011;4244;48.684;9.028;2023-07-29T11:40:16;3.33;;;2.90;;
8413;SDS011;4244;48.684;9.028;2023-07-29T11:42:43;3.17;;;2.87;;
8413;SDS011;4244;48.684;9.028;2023-07-29T11:45:10;2.83;;;2.60;;
8413;SDS011;4244;48.684;9.028;2023-07-29T11:47:37;2.67;;;2.47;;
8413;SDS011;4244;48.684;9.028;2023-07-29T11:50:03;3.10;;;2.60;;
8413;SDS011;4244;48.684;9.028;2023-07-29T11:52:31;3.23;;;2.83;;
8413;SDS011;4244;48.684;9.028;2023-07-29T11:54:57;3.50;;;2.33;;
8413;SDS011;4244;48.684;9.028;2023-07-29T11:57:23;2.80;;;2.53;;
8413;SDS011;4244;48.684;9.028;2023-07-29T11:59:49;3.07;;;2.87;;
8413;SDS011;4244;48.684;9.028;2023-07-29T12:02:16;2.30;;;2.10;;
8413;SDS011;4244;48.684;9.028;2023-07-29T12:04:46;3.00;;;2.80;;
8413;SDS011;4244;48.684;9.028;2023-07-29T12:07:13;2.83;;;2.53;;
8413;SDS011;4244;48.684;9.028;2023-07-29T12:09:40;2.77;;;2.50;;
8413;SDS011;4244;48.684;9.028;2023-07-29T12:12:06;3.00;;;2.70;;
8413;SDS011;4244;48.684;9.028;2023-07-29T12:14:33;3.13;;;2.50;;
8413;SDS011;4244;48.684;9.028;2023-07-29T12:16:59;3.73;;;2.77;;
8413;SDS011;4244;48.684;9.028;2023-07-29T12:19:31;2.70;;;2.50;;
8413;SDS011;4244;48.684;9.028;2023-07-29T12:22:03;2.43;;;2.13;;
8413;SDS011;4244;48.684;9.028;2023-07-29T12:24:31;7.17;;;3.00;;
8413;SDS011;4244;48.684;9.028;2023-07-29T12:26:58;2.50;;;2.30;;
8413;SDS011;4244;48.684;9.028;2023-07-29T12:29:24;2.40;;;2.20;;
8413;SDS011;4244;48.684;9.028;2023-07-29T12:31:57;3.93;;;2.57;;
8413;SDS011;4244;48.684;9.028;2023-07-29T12:34:25;3.90;;;2.80;;
8413;SDS011;4244;48.684;9.028;2023-07-29T12:36:56;2.87;;;2.53;;
8413;SDS011;4244;48.684;9.028;2023-07-29T12:39:30;5.70;;;2.77;;
8413;SDS011;4244;48.684;9.028;2023-07-29T12:41:58;2.90;;;2.70;;
8413;SDS011;4244;48.684;9.028;2023-07-29T12:44:25;3.27;;;2.97;;
8413;SDS011;4244;48.684;9.028;2023-07-29T12:46:54;3.17;;;2.87;;
8413;SDS011;4244;48.684;9.028;2023-07-29T12:49:19;2.80;;;2.60;;
8413;SDS011;4244;48.684;9.028;2023-07-29T12:51:45;3.07;;;2.80;;
8413;SDS011;4244;48.684;9.028;2023-07-29T12:54:11;3.00;;;2.70;;
8413;SDS011;4244;48.684;9.028;2023-07-29T12:56:37;2.87;;;2.57;;
8413;SDS011;4244;48.684;9.028;2023-07-29T12:59:02;2.77;;;2.57;;
8413;SDS011;4244;48.684;9.028;2023-07-29T13:01:29;2.43;;;2.23;;
8413;SDS011;4244;48.684;9.028;2023-07-29T13:03:55;2.20;;;2.00;;
8413;SDS011;4244;48.684;9.028;2023-07-29T13:06:21;2.73;;;2.47;;
8413;SDS011;4244;48.684;9.028;2023-07-29T13:08:47;2.97;;;2.60;;
8413;SDS011;4244;48.684;9.028;2023-07-29T13:11:14;3.03;;;2.73;;
8413;SDS011;4244;48.684;9.028;2023-07-29T13:13:40;3.37;;;3.07;;
8413;SDS011;4244;48.684;9.028;2023-07-29T13:16:05;2.70;;;2.27;;
8413;SDS011;4244;48.684;9.028;2023-07-29T13:18:32;2.50;;;2.30;;
8413;SDS011;4244;48.684;9.028;2023-07-29T13:20:58;4.30;;;2.73;;
8413;SDS011;4244;48.684;9.028;2023-07-29T13:23:25;3.10;;;2.50;;
8413;SDS011;4244;48.684;9.028;2023-07-29T13:25:50;3.23;;;2.70;;
8413;SDS011;4244;48.684;9.028;2023-07-29T13:28:16;2.93;;;2.70;;
8413;SDS011;4244;48.684;9.028;2023-07-29T13:30:42;2.77;;;2.57;;
8413;SDS011;4244;48.684;9.028;2023-07-29T13:33:08;2.60;;;2.40;;
8413;SDS011;4244;48.684;9.028;2023-07-29T13:35:34;2.50;;;2.30;;
8413;SDS011;4244;48.684;9.028;2023-07-29T13:38:00;2.57;;;2.37;;
8413;SDS011;4244;48.684;9.028;2023-07-29T13:40:26;2.33;;;2.13;;
8413;SDS011;4244;48.684;9.028;2023-07-29T13:42:53;3.03;;;2.60;;
8413;SDS011;4244;48.684;9.028;2023-07-29T13:45:19;2.67;;;2.47;;
8413;SDS011;4244;48.684;9.028;2023-07-29T13:47:45;2.20;;;2.00;;
8413;SDS011;4244;48.684;9.028;2023-07-29T13:50:11;2.77;;;2.47;;
8413;SDS011;4244;48.684;9.028;2023-07-29T13:52:37;2.83;;;2.53;;
8413;SDS011;4244;48.684;9.028;2023-07-29T13:55:03;2.77;;;2.50;;
8413;SDS011;4244;48.684;9.028;2023-07-29T13:57:30;3.60;;;2.77;;
8413;SDS011;4244;48.684;9.028;2023-07-29T13:59:56;4.37;;;3.17;;
8413;SDS011;4244;48.684;9.028;2023-07-29T14:02:22;3.07;;;2.20;;
8413;SDS011;4244;48.684;9.028;2023-07-29T14:04:48;3.17;;;2.87;;
8413;SDS011;4244;48.684;9.028;2023-07-29T14:07:13;3.33;;;2.67;;
8413;SDS011;4244;48.684;9.028;2023-07-29T14:09:39;3.00;;;2.67;;
8413;SDS011;4244;48.684;9.028;2023-07-29T14:12:06;3.57;;;2.53;;
8413;SDS011;4244;48.684;9.028;2023-07-29T14:14:33;3.17;;;2.87;;
8413;SDS011;4244;48.684;9.028;2023-07-29T14:16:58;3.33;;;3.00;;
8413;SDS011;4244;48.684;9.028;2023-07-29T14:19:24;3.17;;;2.70;;
8413;SDS011;4244;48.684;9.028;2023-07-29T14:21:50;2.83;;;2.63;;
8413;SDS011;4244;48.684;9.028;2023-07-29T14:24:15;3.20;;;2.90;;
8413;SDS011;4244;48.684;9.028;2023-07-29T14:26:41;3.20;;;2.90;;
8413;SDS011;4244;48.684;9.028;2023-07-29T14:29:07;2.80;;;2.60;;
8413;SDS011;4244;48.684;9.028;2023-07-29T14:31:33;2.57;;;2.37;;
8413;SDS011;4244;48.684;9.028;2023-07-29T14:33:58;3.13;;;2.63;;
8413;SDS011;4244;48.684;9.028;2023-07-29T14:36:25;2.83;;;2.53;;
8413;SDS011;4244;48.684;9.028;2023-07-29T14:38:51;2.90;;;2.70;;
8413;SDS011;4244;48.684;9.028;2023-07-29T14:41:17;2.70;;;2.50;;
8413;SDS011;4244;48.684;9.028;2023-07-29T14:43:43;2.70;;;2.37;;
8413;SDS011;4244;48.684;9.028;2023-07-29T14:46:08;3.03;;;2.73;;
8413;SDS011;4244;48.684;9.028;2023-07-29T14:48:34;3.60;;;2.90;;
8413;SDS011;4244;48.684;9.028;2023-07-29T14:51:00;2.93;;;2.37;;
8413;SDS011;4244;48.684;9.028;2023-07-29T14:53:26;2.83;;;2.63;;
8413;SDS011;4244;48.684;9.028;2023-07-29T14:55:51;2.57;;;2.30;;
8413;SDS011;4244;48.684;9.028;2023-07-29T14:58:17;3.60;;;3.30;;
8413;SDS011;4244;48.684;9.028;2023-07-29T15:00:43;2.77;;;2.57;;
8413;SDS011;4244;48.684;9.028;2023-07-29T15:03:09;3.33;;;3.00;;
8413;SDS011;4244;48.684;9.028;2023-07-29T15:05:34;4.40;;;3.37;;
8413;SDS011;4244;48.684;9.028;2023-07-29T15:08:01;3.47;;;3.17;;
8413;SDS011;4244;48.684;9.028;2023-07-29T15:10:27;3.73;;;3.43;;
8413;SDS011;4244;48.684;9.028;2023-07-29T15:12:52;3.57;;;3.10;;
8413;SDS011;4244;48.684;9.028;2023-07-29T15:15:18;3.10;;;2.80;;
8413;SDS011;4244;48.684;9.028;2023-07-29T15:17:44;4.00;;;3.00;;
8413;SDS011;4244;48.684;9.028;2023-07-29T15:20:10;2.80;;;2.50;;
8413;SDS011;4244;48.684;9.028;2023-07-29T15:22:36;3.07;;;2.80;;
8413;SDS011;4244;48.684;9.028;2023-07-29T15:25:03;2.93;;;2.63;;
8413;SDS011;4244;48.684;9.028;2023-07-29T15:27:29;2.90;;;2.70;;
8413;SDS011;4244;48.684;9.028;2023-07-29T15:29:55;2.73;;;2.53;;
8413;SDS011;4244;48.684;9.028;2023-07-29T15:32:22;2.97;;;2.60;;
8413;SDS011;4244;48.684;9.028;2023-07-29T15:34:48;2.87;;;2.63;;
8413;SDS011;4244;48.684;9.028;2023-07-29T15:37:14;2.73;;;2.53;;
8413;SDS011;4244;48.684;9.028;2023-07-29T15:39:41;3.47;;;3.17;;
8413;SDS011;4244;48.684;9.028;2023-07-29T15:42:07;2.80;;;2.40;;
8413;SDS011;4244;48.684;9.028;2023-07-29T15:44:33;3.07;;;2.60;;
8413;SDS011;4244;48.684;9.028;2023-07-29T15:46:58;3.07;;;2.77;;
8413;SDS011;4244;48.684;9.028;2023-07-29T15:49:24;3.20;;;2.90;;
8413;SDS011;4244;48.684;9.028;2023-07-29T15:51:50;4.20;;;2.87;;
8413;SDS011;4244;48.684;9.028;2023-07-29T15:54:16;2.97;;;2.77;;
8413;SDS011;4244;48.684;9.028;2023-07-29T15:56:42;2.30;;;2.10;;
8413;SDS011;4244;48.684;9.028;2023-07-29T15:59:11;2.97;;;2.50;;
8413;SDS011;4244;48.684;9.028;2023-07-29T16:01:36;2.60;;;2.40;;
8413;SDS011;4244;48.684;9.028;2023-07-29T16:04:02;2.37;;;2.03;;
8413;SDS011;4244;48.684;9.028;2023-07-29T16:06:29;2.80;;;2.50;;
8413;SDS011;4244;48.684;9.028;2023-07-29T16:08:55;3.23;;;2.70;;
8413;SDS011;4244;48.684;9.028;2023-07-29T16:11:21;2.97;;;2.67;;
8413;SDS011;4244;48.684;9.028;2023-07-29T16:13:47;3.17;;;2.87;;
8413;SDS011;4244;48.684;9.028;2023-07-29T16:16:13;2.67;;;2.40;;
8413;SDS011;4244;48.684;9.028;2023-07-29T16:18:38;2.93;;;2.67;;
8413;SDS011;4244;48.684;9.028;2023-07-29T16:21:04;2.50;;;2.30;;
8413;SDS011;4244;48.684;9.028;2023-07-29T16:23:34;2.93;;;2.70;;
8413;SDS011;4244;48.684;9.028;2023-07-29T16:25:59;2.60;;;2.40;;
8413;SDS011;4244;48.684;9.028;2023-07-29T16:28:25;4.33;;;2.23;;
8413;SDS011;4244;48.684;9.028;2023-07-29T16:30:51;3.20;;;2.80;;
8413;SDS011;4244;48.684;9.028;2023-07-29T16:33:17;3.10;;;2.47;;
8413;SDS011;4244;48.684;9.028;2023-07-29T16:35:43;3.37;;;2.93;;
8413;SDS011;4244;48.684;9.028;2023-07-29T16:38:09;2.90;;;2.60;;
8413;SDS011;4244;48.684;9.028;2023-07-29T16:40:34;2.80;;;2.60;;
8413;SDS011;4244;48.684;9.028;2023-07-29T16:43:00;2.87;;;2.63;;
8413;SDS011;4244;48.684;9.028;2023-07-29T16:45:26;2.80;;;2.60;;
8413;SDS011;4244;48.684;9.028;2023-07-29T16:47:55;3.00;;;2.70;;
8413;SDS011;4244;48.684;9.028;2023-07-29T16:50:21;2.53;;;2.33;;
8413;SDS011;4244;48.684;9.028;2023-07-29T16:52:47;3.07;;;2.87;;
8413;SDS011;4244;48.684;9.028;2023-07-29T16:55:21;4.00;;;3.43;;
8413;SDS011;4244;48.684;9.028;2023-07-29T16:57:47;3.20;;;2.90;;